YRI weather

Rivière-du-Loup Airport
Rivière-du-Loup, Quebec, Canada

Public forecast

Using degrees Celsius for public forecast. Weather courtesy of forecast.io.

Closest aviation weather report (METAR) to Rivière-du-Loup Airport

Closest report is Northern Aroostook Regional Airport, 59.0 nm (109.3 km) ESE. Retrieved 2019/10/16 17:53 UTC (12 minutes ago):

KFVE 161753Z AUTO 14008KT 120V180 10SM CLR 12/01 A2997 RMK AO2 SLP151 T01220011 10128 20028 58023

Closest aviation forecast (TAF) to Rivière-du-Loup Airport

Forecast is more than 12 hours old.

Closest forecast is Charlevoix Airport, 27.7 nm (51.3 km) WSW. Retrieved 2018/06/10 18:00 UTC (1 year ago):

TAF CYML 101730Z 1018/1106 12005KT P6SM FEW060 FM102100 14006KT P6SM SCT080 BECMG 1021/1023 VRB03KT RMK NXT FCST BY 110000Z